Terminal Aerodrome Forecast
Issued by NWS Quad Cities IA IL

Home | Current Version | Previous Version | Text Only | Print | Product List | Glossary On
Versions: 1 2 3 4 5 6 7 8 9 10 11 12 13 14 15 16 17
136
FTUS43 KDVN 251055 AAB
TAFMLI
TAF AMD
KMLI 251055Z 2511/2606 30015G22KT 1 1/2SM -SN BKN018 BKN024
     FM251200 30014G22KT P6SM BKN150
     FM260000 26006KT P6SM SCT250=

USA.gov is the U.S. government's official web portal to all federal, state and local government web resources and services.